sensor_id;sensor_type;location;lat;lon;timestamp;P1;durP1;ratioP1;P2;durP2;ratioP2
20861;SDS011;10591;52.532;13.348;2023-11-19T00:02:10;11.77;;;9.47;;
20861;SDS011;10591;52.532;13.348;2023-11-19T00:04:41;12.50;;;9.63;;
20861;SDS011;10591;52.532;13.348;2023-11-19T00:07:12;12.27;;;8.73;;
20861;SDS011;10591;52.532;13.348;2023-11-19T00:09:46;11.87;;;8.80;;
20861;SDS011;10591;52.532;13.348;2023-11-19T00:12:17;11.67;;;8.70;;
20861;SDS011;10591;52.532;13.348;2023-11-19T00:14:47;12.60;;;9.33;;
20861;SDS011;10591;52.532;13.348;2023-11-19T00:17:18;12.33;;;9.63;;
20861;SDS011;10591;52.532;13.348;2023-11-19T00:19:49;11.25;;;8.50;;
20861;SDS011;10591;52.532;13.348;2023-11-19T00:22:22;10.27;;;8.97;;
20861;SDS011;10591;52.532;13.348;2023-11-19T00:24:53;10.70;;;8.87;;
20861;SDS011;10591;52.532;13.348;2023-11-19T00:27:23;10.50;;;8.95;;
20861;SDS011;10591;52.532;13.348;2023-11-19T00:29:54;10.13;;;8.77;;
20861;SDS011;10591;52.532;13.348;2023-11-19T00:32:25;11.75;;;8.63;;
20861;SDS011;10591;52.532;13.348;2023-11-19T00:34:56;10.75;;;8.80;;
20861;SDS011;10591;52.532;13.348;2023-11-19T00:37:27;11.07;;;8.30;;
20861;SDS011;10591;52.532;13.348;2023-11-19T00:39:58;10.83;;;8.27;;
20861;SDS011;10591;52.532;13.348;2023-11-19T00:42:29;8.73;;;7.83;;
20861;SDS011;10591;52.532;13.348;2023-11-19T00:44:59;8.73;;;7.33;;
20861;SDS011;10591;52.532;13.348;2023-11-19T00:47:30;9.03;;;7.67;;
20861;SDS011;10591;52.532;13.348;2023-11-19T00:50:02;9.73;;;7.53;;
20861;SDS011;10591;52.532;13.348;2023-11-19T00:52:34;9.90;;;8.17;;
20861;SDS011;10591;52.532;13.348;2023-11-19T00:55:08;8.47;;;7.53;;
20861;SDS011;10591;52.532;13.348;2023-11-19T00:57:39;9.10;;;6.80;;
20861;SDS011;10591;52.532;13.348;2023-11-19T01:00:10;8.77;;;7.23;;
20861;SDS011;10591;52.532;13.348;2023-11-19T01:02:44;9.00;;;7.85;;
20861;SDS011;10591;52.532;13.348;2023-11-19T01:05:17;9.50;;;7.30;;
20861;SDS011;10591;52.532;13.348;2023-11-19T01:07:50;11.20;;;7.57;;
20861;SDS011;10591;52.532;13.348;2023-11-19T01:10:23;10.30;;;7.40;;
20861;SDS011;10591;52.532;13.348;2023-11-19T01:12:55;9.13;;;7.50;;
20861;SDS011;10591;52.532;13.348;2023-11-19T01:15:26;7.63;;;6.80;;
20861;SDS011;10591;52.532;13.348;2023-11-19T01:17:57;9.87;;;7.37;;
20861;SDS011;10591;52.532;13.348;2023-11-19T01:20:28;11.07;;;7.07;;
20861;SDS011;10591;52.532;13.348;2023-11-19T01:22:59;9.23;;;7.33;;
20861;SDS011;10591;52.532;13.348;2023-11-19T01:25:30;8.20;;;7.20;;
20861;SDS011;10591;52.532;13.348;2023-11-19T01:28:01;8.93;;;7.10;;
20861;SDS011;10591;52.532;13.348;2023-11-19T01:30:33;10.20;;;7.33;;
20861;SDS011;10591;52.532;13.348;2023-11-19T01:33:04;8.03;;;6.87;;
20861;SDS011;10591;52.532;13.348;2023-11-19T01:35:36;7.67;;;6.83;;
20861;SDS011;10591;52.532;13.348;2023-11-19T01:38:08;8.30;;;7.17;;
20861;SDS011;10591;52.532;13.348;2023-11-19T01:40:39;8.47;;;7.37;;
20861;SDS011;10591;52.532;13.348;2023-11-19T01:43:10;8.80;;;6.77;;
20861;SDS011;10591;52.532;13.348;2023-11-19T01:45:42;7.60;;;6.80;;
20861;SDS011;10591;52.532;13.348;2023-11-19T01:48:13;7.80;;;6.60;;
20861;SDS011;10591;52.532;13.348;2023-11-19T01:50:44;7.50;;;6.70;;
20861;SDS011;10591;52.532;13.348;2023-11-19T01:53:15;8.97;;;6.90;;
20861;SDS011;10591;52.532;13.348;2023-11-19T01:55:46;9.47;;;7.53;;
20861;SDS011;10591;52.532;13.348;2023-11-19T01:58:18;8.57;;;6.73;;
20861;SDS011;10591;52.532;13.348;2023-11-19T02:00:49;11.03;;;7.70;;
20861;SDS011;10591;52.532;13.348;2023-11-19T02:03:20;8.13;;;6.80;;
20861;SDS011;10591;52.532;13.348;2023-11-19T02:05:54;8.80;;;7.13;;
20861;SDS011;10591;52.532;13.348;2023-11-19T02:08:25;7.77;;;6.30;;
20861;SDS011;10591;52.532;13.348;2023-11-19T02:10:56;7.60;;;6.80;;
20861;SDS011;10591;52.532;13.348;2023-11-19T02:13:26;9.03;;;7.30;;
20861;SDS011;10591;52.532;13.348;2023-11-19T02:16:00;7.50;;;6.60;;
20861;SDS011;10591;52.532;13.348;2023-11-19T02:18:32;8.08;;;6.62;;
20861;SDS011;10591;52.532;13.348;2023-11-19T02:21:04;8.60;;;7.13;;
20861;SDS011;10591;52.532;13.348;2023-11-19T02:23:36;8.20;;;6.53;;
20861;SDS011;10591;52.532;13.348;2023-11-19T02:26:14;9.00;;;6.60;;
20861;SDS011;10591;52.532;13.348;2023-11-19T02:28:46;8.10;;;6.37;;
20861;SDS011;10591;52.532;13.348;2023-11-19T02:31:17;8.63;;;7.13;;
20861;SDS011;10591;52.532;13.348;2023-11-19T02:33:49;8.03;;;6.17;;
20861;SDS011;10591;52.532;13.348;2023-11-19T02:36:20;8.57;;;6.30;;
20861;SDS011;10591;52.532;13.348;2023-11-19T02:38:51;7.43;;;6.37;;
20861;SDS011;10591;52.532;13.348;2023-11-19T02:41:22;6.50;;;5.80;;
20861;SDS011;10591;52.532;13.348;2023-11-19T02:43:53;7.13;;;6.37;;
20861;SDS011;10591;52.532;13.348;2023-11-19T02:46:23;8.80;;;6.20;;
20861;SDS011;10591;52.532;13.348;2023-11-19T02:48:55;7.77;;;6.17;;
20861;SDS011;10591;52.532;13.348;2023-11-19T02:51:26;8.27;;;6.37;;
20861;SDS011;10591;52.532;13.348;2023-11-19T02:53:56;6.55;;;5.85;;
20861;SDS011;10591;52.532;13.348;2023-11-19T02:56:29;7.42;;;5.60;;
20861;SDS011;10591;52.532;13.348;2023-11-19T02:59:01;6.47;;;5.00;;
20861;SDS011;10591;52.532;13.348;2023-11-19T03:01:36;6.50;;;5.72;;
20861;SDS011;10591;52.532;13.348;2023-11-19T03:04:09;5.80;;;5.20;;
20861;SDS011;10591;52.532;13.348;2023-11-19T03:06:41;7.65;;;5.80;;
20861;SDS011;10591;52.532;13.348;2023-11-19T03:09:13;5.95;;;5.08;;
20861;SDS011;10591;52.532;13.348;2023-11-19T03:11:44;6.43;;;5.47;;
20861;SDS011;10591;52.532;13.348;2023-11-19T03:14:16;5.93;;;5.33;;
20861;SDS011;10591;52.532;13.348;2023-11-19T03:16:47;6.80;;;4.90;;
20861;SDS011;10591;52.532;13.348;2023-11-19T03:19:19;6.78;;;5.20;;
20861;SDS011;10591;52.532;13.348;2023-11-19T03:21:51;6.08;;;5.30;;
20861;SDS011;10591;52.532;13.348;2023-11-19T03:24:23;6.45;;;5.17;;
20861;SDS011;10591;52.532;13.348;2023-11-19T03:26:53;5.75;;;5.15;;
20861;SDS011;10591;52.532;13.348;2023-11-19T03:29:25;6.28;;;5.67;;
20861;SDS011;10591;52.532;13.348;2023-11-19T03:31:58;6.55;;;5.80;;
20861;SDS011;10591;52.532;13.348;2023-11-19T03:34:28;6.73;;;5.90;;
20861;SDS011;10591;52.532;13.348;2023-11-19T03:36:59;7.83;;;5.70;;
20861;SDS011;10591;52.532;13.348;2023-11-19T03:39:30;7.80;;;6.07;;
20861;SDS011;10591;52.532;13.348;2023-11-19T03:42:00;7.30;;;6.17;;
20861;SDS011;10591;52.532;13.348;2023-11-19T03:44:32;8.10;;;6.50;;
20861;SDS011;10591;52.532;13.348;2023-11-19T03:47:03;9.07;;;6.23;;
20861;SDS011;10591;52.532;13.348;2023-11-19T03:49:36;8.83;;;6.40;;
20861;SDS011;10591;52.532;13.348;2023-11-19T03:52:06;8.27;;;6.90;;
20861;SDS011;10591;52.532;13.348;2023-11-19T03:54:40;7.50;;;6.40;;
20861;SDS011;10591;52.532;13.348;2023-11-19T03:57:10;9.07;;;6.67;;
20861;SDS011;10591;52.532;13.348;2023-11-19T03:59:44;9.50;;;7.27;;
20861;SDS011;10591;52.532;13.348;2023-11-19T04:02:15;8.97;;;7.17;;
20861;SDS011;10591;52.532;13.348;2023-11-19T04:04:50;9.93;;;7.67;;
20861;SDS011;10591;52.532;13.348;2023-11-19T04:07:20;8.90;;;7.33;;
20861;SDS011;10591;52.532;13.348;2023-11-19T04:09:51;9.80;;;7.87;;
20861;SDS011;10591;52.532;13.348;2023-11-19T04:12:25;8.30;;;7.17;;
20861;SDS011;10591;52.532;13.348;2023-11-19T04:14:55;9.27;;;7.80;;
20861;SDS011;10591;52.532;13.348;2023-11-19T04:17:27;10.63;;;8.08;;
20861;SDS011;10591;52.532;13.348;2023-11-19T04:19:58;9.80;;;7.83;;
20861;SDS011;10591;52.532;13.348;2023-11-19T04:22:30;9.10;;;7.50;;
20861;SDS011;10591;52.532;13.348;2023-11-19T04:25:01;10.60;;;7.77;;
20861;SDS011;10591;52.532;13.348;2023-11-19T04:27:33;9.80;;;8.00;;
20861;SDS011;10591;52.532;13.348;2023-11-19T04:30:04;8.80;;;7.07;;
20861;SDS011;10591;52.532;13.348;2023-11-19T04:32:37;10.87;;;7.67;;
20861;SDS011;10591;52.532;13.348;2023-11-19T04:35:08;9.70;;;7.87;;
20861;SDS011;10591;52.532;13.348;2023-11-19T04:37:39;10.90;;;7.37;;
20861;SDS011;10591;52.532;13.348;2023-11-19T04:40:11;10.47;;;7.80;;
20861;SDS011;10591;52.532;13.348;2023-11-19T04:42:42;11.50;;;8.13;;
20861;SDS011;10591;52.532;13.348;2023-11-19T04:45:14;9.57;;;7.93;;
20861;SDS011;10591;52.532;13.348;2023-11-19T04:47:45;10.53;;;8.60;;
20861;SDS011;10591;52.532;13.348;2023-11-19T04:50:15;12.37;;;8.50;;
20861;SDS011;10591;52.532;13.348;2023-11-19T04:52:46;11.17;;;8.43;;
20861;SDS011;10591;52.532;13.348;2023-11-19T04:55:17;12.27;;;8.50;;
20861;SDS011;10591;52.532;13.348;2023-11-19T04:57:49;11.30;;;8.47;;
20861;SDS011;10591;52.532;13.348;2023-11-19T05:00:20;10.53;;;8.03;;
20861;SDS011;10591;52.532;13.348;2023-11-19T05:02:52;11.00;;;8.93;;
20861;SDS011;10591;52.532;13.348;2023-11-19T05:05:22;11.37;;;8.10;;
20861;SDS011;10591;52.532;13.348;2023-11-19T05:07:53;10.67;;;8.70;;
20861;SDS011;10591;52.532;13.348;2023-11-19T05:10:24;11.03;;;8.70;;
20861;SDS011;10591;52.532;13.348;2023-11-19T05:12:55;11.57;;;8.30;;
20861;SDS011;10591;52.532;13.348;2023-11-19T05:15:25;12.60;;;9.10;;
20861;SDS011;10591;52.532;13.348;2023-11-19T05:17:56;10.57;;;8.43;;
20861;SDS011;10591;52.532;13.348;2023-11-19T05:20:28;11.17;;;8.27;;
20861;SDS011;10591;52.532;13.348;2023-11-19T05:23:01;10.17;;;8.17;;
20861;SDS011;10591;52.532;13.348;2023-11-19T05:25:32;10.38;;;8.48;;
20861;SDS011;10591;52.532;13.348;2023-11-19T05:28:04;11.13;;;8.37;;
20861;SDS011;10591;52.532;13.348;2023-11-19T05:30:36;11.70;;;8.90;;
20861;SDS011;10591;52.532;13.348;2023-11-19T05:33:07;11.65;;;9.00;;
20861;SDS011;10591;52.532;13.348;2023-11-19T05:35:41;11.87;;;8.67;;
20861;SDS011;10591;52.532;13.348;2023-11-19T05:38:11;11.00;;;8.83;;
20861;SDS011;10591;52.532;13.348;2023-11-19T05:40:45;9.60;;;8.00;;
20861;SDS011;10591;52.532;13.348;2023-11-19T05:43:17;9.43;;;7.50;;
20861;SDS011;10591;52.532;13.348;2023-11-19T05:45:48;9.27;;;8.03;;
20861;SDS011;10591;52.532;13.348;2023-11-19T05:48:18;10.33;;;7.90;;
20861;SDS011;10591;52.532;13.348;2023-11-19T05:50:50;9.47;;;7.87;;
20861;SDS011;10591;52.532;13.348;2023-11-19T05:53:20;9.97;;;8.23;;
20861;SDS011;10591;52.532;13.348;2023-11-19T05:55:51;11.63;;;8.27;;
20861;SDS011;10591;52.532;13.348;2023-11-19T05:58:25;10.03;;;7.70;;
20861;SDS011;10591;52.532;13.348;2023-11-19T06:00:58;10.63;;;8.00;;
20861;SDS011;10591;52.532;13.348;2023-11-19T06:03:32;9.50;;;8.07;;
20861;SDS011;10591;52.532;13.348;2023-11-19T06:06:03;10.27;;;7.67;;
20861;SDS011;10591;52.532;13.348;2023-11-19T06:08:34;9.23;;;7.37;;
20861;SDS011;10591;52.532;13.348;2023-11-19T06:11:06;9.40;;;7.90;;
20861;SDS011;10591;52.532;13.348;2023-11-19T06:13:36;9.77;;;7.97;;
20861;SDS011;10591;52.532;13.348;2023-11-19T06:16:07;9.67;;;7.57;;
20861;SDS011;10591;52.532;13.348;2023-11-19T06:18:38;9.90;;;8.50;;
20861;SDS011;10591;52.532;13.348;2023-11-19T06:21:11;8.87;;;7.83;;
20861;SDS011;10591;52.532;13.348;2023-11-19T06:23:42;9.87;;;7.77;;
20861;SDS011;10591;52.532;13.348;2023-11-19T06:26:12;10.13;;;7.73;;
20861;SDS011;10591;52.532;13.348;2023-11-19T06:28:43;9.47;;;7.70;;
20861;SDS011;10591;52.532;13.348;2023-11-19T06:31:15;10.13;;;8.03;;
20861;SDS011;10591;52.532;13.348;2023-11-19T06:33:46;9.70;;;7.63;;
20861;SDS011;10591;52.532;13.348;2023-11-19T06:36:17;9.20;;;8.03;;
20861;SDS011;10591;52.532;13.348;2023-11-19T06:38:47;9.17;;;7.47;;
20861;SDS011;10591;52.532;13.348;2023-11-19T06:41:18;10.73;;;8.63;;
20861;SDS011;10591;52.532;13.348;2023-11-19T06:43:49;8.33;;;7.27;;
20861;SDS011;10591;52.532;13.348;2023-11-19T06:46:21;8.40;;;7.50;;
20861;SDS011;10591;52.532;13.348;2023-11-19T06:48:51;8.90;;;7.33;;
20861;SDS011;10591;52.532;13.348;2023-11-19T06:51:22;9.48;;;8.08;;
20861;SDS011;10591;52.532;13.348;2023-11-19T06:53:57;8.70;;;7.80;;
20861;SDS011;10591;52.532;13.348;2023-11-19T06:56:28;8.60;;;7.40;;
20861;SDS011;10591;52.532;13.348;2023-11-19T06:58:59;9.57;;;7.83;;
20861;SDS011;10591;52.532;13.348;2023-11-19T07:01:34;8.00;;;7.17;;
20861;SDS011;10591;52.532;13.348;2023-11-19T07:04:07;9.20;;;7.60;;
20861;SDS011;10591;52.532;13.348;2023-11-19T07:06:38;7.93;;;7.13;;
20861;SDS011;10591;52.532;13.348;2023-11-19T07:09:10;8.93;;;7.83;;
20861;SDS011;10591;52.532;13.348;2023-11-19T07:11:40;9.67;;;8.10;;
20861;SDS011;10591;52.532;13.348;2023-11-19T07:14:13;9.03;;;7.03;;
20861;SDS011;10591;52.532;13.348;2023-11-19T07:16:45;9.30;;;7.87;;
20861;SDS011;10591;52.532;13.348;2023-11-19T07:19:15;8.80;;;7.57;;
20861;SDS011;10591;52.532;13.348;2023-11-19T07:21:46;8.40;;;7.12;;
20861;SDS011;10591;52.532;13.348;2023-11-19T07:24:17;8.40;;;7.43;;
20861;SDS011;10591;52.532;13.348;2023-11-19T07:26:47;8.10;;;7.22;;
20861;SDS011;10591;52.532;13.348;2023-11-19T07:29:18;8.83;;;7.50;;
20861;SDS011;10591;52.532;13.348;2023-11-19T07:31:55;7.90;;;6.93;;
20861;SDS011;10591;52.532;13.348;2023-11-19T07:34:25;8.17;;;6.77;;
20861;SDS011;10591;52.532;13.348;2023-11-19T07:36:56;8.00;;;6.70;;
20861;SDS011;10591;52.532;13.348;2023-11-19T07:39:29;10.23;;;7.33;;
20861;SDS011;10591;52.532;13.348;2023-11-19T07:42:00;8.27;;;7.03;;
20861;SDS011;10591;52.532;13.348;2023-11-19T07:44:33;9.67;;;8.27;;
20861;SDS011;10591;52.532;13.348;2023-11-19T07:47:03;8.70;;;7.05;;
20861;SDS011;10591;52.532;13.348;2023-11-19T07:49:34;10.13;;;8.20;;
20861;SDS011;10591;52.532;13.348;2023-11-19T07:52:05;8.40;;;7.50;;
20861;SDS011;10591;52.532;13.348;2023-11-19T07:54:38;8.57;;;7.40;;
20861;SDS011;10591;52.532;13.348;2023-11-19T07:57:11;10.60;;;7.93;;
20861;SDS011;10591;52.532;13.348;2023-11-19T07:59:42;9.03;;;7.23;;
20861;SDS011;10591;52.532;13.348;2023-11-19T08:02:14;10.08;;;7.83;;
20861;SDS011;10591;52.532;13.348;2023-11-19T08:04:45;10.20;;;8.50;;
20861;SDS011;10591;52.532;13.348;2023-11-19T08:07:18;10.43;;;8.00;;
20861;SDS011;10591;52.532;13.348;2023-11-19T08:09:48;8.98;;;7.92;;
20861;SDS011;10591;52.532;13.348;2023-11-19T08:12:19;8.90;;;7.65;;
20861;SDS011;10591;52.532;13.348;2023-11-19T08:14:49;9.73;;;7.70;;
20861;SDS011;10591;52.532;13.348;2023-11-19T08:17:20;8.30;;;7.40;;
20861;SDS011;10591;52.532;13.348;2023-11-19T08:19:52;7.87;;;7.08;;
20861;SDS011;10591;52.532;13.348;2023-11-19T08:22:22;8.13;;;7.33;;
20861;SDS011;10591;52.532;13.348;2023-11-19T08:24:53;9.90;;;7.70;;
20861;SDS011;10591;52.532;13.348;2023-11-19T08:27:24;8.00;;;7.20;;
20861;SDS011;10591;52.532;13.348;2023-11-19T08:29:57;9.40;;;7.72;;
20861;SDS011;10591;52.532;13.348;2023-11-19T08:32:28;10.18;;;8.60;;
20861;SDS011;10591;52.532;13.348;2023-11-19T08:35:00;11.08;;;9.43;;
20861;SDS011;10591;52.532;13.348;2023-11-19T08:37:32;10.43;;;8.40;;
20861;SDS011;10591;52.532;13.348;2023-11-19T08:40:04;12.68;;;9.08;;
20861;SDS011;10591;52.532;13.348;2023-11-19T08:42:36;9.60;;;8.47;;
20861;SDS011;10591;52.532;13.348;2023-11-19T08:45:08;9.18;;;8.03;;
20861;SDS011;10591;52.532;13.348;2023-11-19T08:47:40;9.93;;;8.48;;
20861;SDS011;10591;52.532;13.348;2023-11-19T08:50:11;10.53;;;8.90;;
20861;SDS011;10591;52.532;13.348;2023-11-19T08:52:42;9.45;;;8.45;;
20861;SDS011;10591;52.532;13.348;2023-11-19T08:55:12;9.08;;;7.85;;
20861;SDS011;10591;52.532;13.348;2023-11-19T08:57:44;10.48;;;9.08;;
20861;SDS011;10591;52.532;13.348;2023-11-19T09:00:18;9.45;;;8.40;;
20861;SDS011;10591;52.532;13.348;2023-11-19T09:02:49;8.65;;;7.42;;
20861;SDS011;10591;52.532;13.348;2023-11-19T09:05:23;8.93;;;8.03;;
20861;SDS011;10591;52.532;13.348;2023-11-19T09:07:54;10.53;;;8.43;;
20861;SDS011;10591;52.532;13.348;2023-11-19T09:10:24;8.30;;;7.50;;
20861;SDS011;10591;52.532;13.348;2023-11-19T09:12:59;8.40;;;7.33;;
20861;SDS011;10591;52.532;13.348;2023-11-19T09:15:31;8.10;;;7.30;;
20861;SDS011;10591;52.532;13.348;2023-11-19T09:18:02;8.98;;;7.33;;
20861;SDS011;10591;52.532;13.348;2023-11-19T09:20:34;8.13;;;7.10;;
20861;SDS011;10591;52.532;13.348;2023-11-19T09:23:06;7.85;;;6.97;;
20861;SDS011;10591;52.532;13.348;2023-11-19T09:25:38;7.90;;;6.72;;
20861;SDS011;10591;52.532;13.348;2023-11-19T09:28:11;7.95;;;7.08;;
20861;SDS011;10591;52.532;13.348;2023-11-19T09:30:43;7.03;;;6.08;;
20861;SDS011;10591;52.532;13.348;2023-11-19T09:33:14;8.28;;;7.03;;
20861;SDS011;10591;52.532;13.348;2023-11-19T09:35:45;8.58;;;6.65;;
20861;SDS011;10591;52.532;13.348;2023-11-19T09:38:17;8.25;;;7.12;;
20861;SDS011;10591;52.532;13.348;2023-11-19T09:40:48;7.55;;;6.75;;
20861;SDS011;10591;52.532;13.348;2023-11-19T09:43:19;6.87;;;6.17;;
20861;SDS011;10591;52.532;13.348;2023-11-19T09:45:51;8.50;;;6.55;;
20861;SDS011;10591;52.532;13.348;2023-11-19T09:48:25;7.78;;;6.97;;
20861;SDS011;10591;52.532;13.348;2023-11-19T09:50:57;7.65;;;6.87;;
20861;SDS011;10591;52.532;13.348;2023-11-19T09:53:28;6.78;;;6.08;;
20861;SDS011;10591;52.532;13.348;2023-11-19T09:56:00;7.50;;;6.12;;
20861;SDS011;10591;52.532;13.348;2023-11-19T09:58:35;7.30;;;5.92;;
20861;SDS011;10591;52.532;13.348;2023-11-19T10:01:06;6.80;;;5.30;;
20861;SDS011;10591;52.532;13.348;2023-11-19T10:03:40;8.68;;;5.60;;
20861;SDS011;10591;52.532;13.348;2023-11-19T10:06:13;6.70;;;5.40;;
20861;SDS011;10591;52.532;13.348;2023-11-19T10:08:46;7.00;;;5.20;;
20861;SDS011;10591;52.532;13.348;2023-11-19T10:11:17;8.40;;;5.72;;
20861;SDS011;10591;52.532;13.348;2023-11-19T10:13:48;7.33;;;4.90;;
20861;SDS011;10591;52.532;13.348;2023-11-19T10:16:20;8.35;;;5.12;;
20861;SDS011;10591;52.532;13.348;2023-11-19T10:18:52;6.25;;;5.10;;
20861;SDS011;10591;52.532;13.348;2023-11-19T10:21:24;6.60;;;4.50;;
20861;SDS011;10591;52.532;13.348;2023-11-19T10:23:57;8.23;;;4.95;;
20861;SDS011;10591;52.532;13.348;2023-11-19T10:26:29;9.53;;;4.40;;
20861;SDS011;10591;52.532;13.348;2023-11-19T10:29:01;5.55;;;4.03;;
20861;SDS011;10591;52.532;13.348;2023-11-19T10:31:32;7.40;;;4.53;;
20861;SDS011;10591;52.532;13.348;2023-11-19T10:34:04;4.92;;;4.08;;
20861;SDS011;10591;52.532;13.348;2023-11-19T10:36:40;6.17;;;3.45;;
20861;SDS011;10591;52.532;13.348;2023-11-19T10:39:12;4.80;;;3.35;;
20861;SDS011;10591;52.532;13.348;2023-11-19T10:41:43;6.05;;;3.50;;
20861;SDS011;10591;52.532;13.348;2023-11-19T10:44:30;6.42;;;3.52;;
20861;SDS011;10591;52.532;13.348;2023-11-19T10:47:01;5.12;;;3.45;;
20861;SDS011;10591;52.532;13.348;2023-11-19T10:49:33;5.65;;;3.20;;
20861;SDS011;10591;52.532;13.348;2023-11-19T10:52:05;5.58;;;3.22;;
20861;SDS011;10591;52.532;13.348;2023-11-19T10:54:37;5.28;;;3.40;;
20861;SDS011;10591;52.532;13.348;2023-11-19T10:57:13;5.72;;;3.52;;
20861;SDS011;10591;52.532;13.348;2023-11-19T10:59:44;5.42;;;3.80;;
20861;SDS011;10591;52.532;13.348;2023-11-19T11:02:18;9.15;;;3.75;;
20861;SDS011;10591;52.532;13.348;2023-11-19T11:04:55;7.50;;;3.80;;
20861;SDS011;10591;52.532;13.348;2023-11-19T11:07:27;8.35;;;4.42;;
20861;SDS011;10591;52.532;13.348;2023-11-19T11:10:01;6.72;;;3.72;;
20861;SDS011;10591;52.532;13.348;2023-11-19T11:12:35;9.60;;;4.30;;
20861;SDS011;10591;52.532;13.348;2023-11-19T11:15:12;9.73;;;4.30;;
20861;SDS011;10591;52.532;13.348;2023-11-19T11:17:44;9.48;;;5.12;;
20861;SDS011;10591;52.532;13.348;2023-11-19T11:20:17;10.28;;;3.77;;
20861;SDS011;10591;52.532;13.348;2023-11-19T11:23:03;7.05;;;3.90;;
20861;SDS011;10591;52.532;13.348;2023-11-19T11:25:34;9.18;;;3.40;;
20861;SDS011;10591;52.532;13.348;2023-11-19T11:28:35;10.35;;;4.22;;
20861;SDS011;10591;52.532;13.348;2023-11-19T11:31:23;6.90;;;4.33;;
20861;SDS011;10591;52.532;13.348;2023-11-19T11:37:17;8.48;;;4.45;;
20861;SDS011;10591;52.532;13.348;2023-11-19T11:39:49;13.18;;;4.30;;
20861;SDS011;10591;52.532;13.348;2023-11-19T11:45:05;10.45;;;4.37;;
20861;SDS011;10591;52.532;13.348;2023-11-19T11:50:26;8.95;;;3.65;;
20861;SDS011;10591;52.532;13.348;2023-11-19T11:55:35;8.43;;;3.80;;
20861;SDS011;10591;52.532;13.348;2023-11-19T11:58:08;12.90;;;4.37;;
20861;SDS011;10591;52.532;13.348;2023-11-19T12:00:39;15.45;;;5.22;;
20861;SDS011;10591;52.532;13.348;2023-11-19T12:03:11;12.90;;;4.28;;
20861;SDS011;10591;52.532;13.348;2023-11-19T12:05:45;13.90;;;4.95;;
20861;SDS011;10591;52.532;13.348;2023-11-19T12:08:18;12.47;;;5.37;;
20861;SDS011;10591;52.532;13.348;2023-11-19T12:10:55;14.98;;;5.53;;
20861;SDS011;10591;52.532;13.348;2023-11-19T12:14:03;13.22;;;4.92;;
20861;SDS011;10591;52.532;13.348;2023-11-19T12:16:16;15.50;;;4.60;;
20861;SDS011;10591;52.532;13.348;2023-11-19T12:18:48;11.35;;;4.47;;
20861;SDS011;10591;52.532;13.348;2023-11-19T12:21:28;11.08;;;4.70;;
20861;SDS011;10591;52.532;13.348;2023-11-19T12:24:00;12.20;;;4.47;;
20861;SDS011;10591;52.532;13.348;2023-11-19T12:26:34;13.78;;;5.10;;
20861;SDS011;10591;52.532;13.348;2023-11-19T12:29:07;11.30;;;4.17;;
20861;SDS011;10591;52.532;13.348;2023-11-19T12:31:38;10.43;;;4.50;;
20861;SDS011;10591;52.532;13.348;2023-11-19T12:34:13;13.53;;;4.30;;
20861;SDS011;10591;52.532;13.348;2023-11-19T12:36:45;13.53;;;4.75;;
20861;SDS011;10591;52.532;13.348;2023-11-19T12:39:17;14.43;;;5.10;;
20861;SDS011;10591;52.532;13.348;2023-11-19T12:41:52;15.53;;;5.40;;
20861;SDS011;10591;52.532;13.348;2023-11-19T12:44:23;13.60;;;5.30;;
20861;SDS011;10591;52.532;13.348;2023-11-19T12:47:01;15.13;;;5.53;;
20861;SDS011;10591;52.532;13.348;2023-11-19T12:49:34;14.45;;;5.05;;
20861;SDS011;10591;52.532;13.348;2023-11-19T12:52:12;11.83;;;5.40;;
20861;SDS011;10591;52.532;13.348;2023-11-19T12:54:44;15.08;;;4.28;;
20861;SDS011;10591;52.532;13.348;2023-11-19T12:57:15;13.78;;;4.70;;
20861;SDS011;10591;52.532;13.348;2023-11-19T12:59:54;15.80;;;5.40;;
20861;SDS011;10591;52.532;13.348;2023-11-19T13:02:44;16.05;;;5.25;;
20861;SDS011;10591;52.532;13.348;2023-11-19T13:05:21;16.30;;;5.37;;
20861;SDS011;10591;52.532;13.348;2023-11-19T13:08:03;21.17;;;5.30;;
20861;SDS011;10591;52.532;13.348;2023-11-19T13:10:53;19.17;;;5.58;;
20861;SDS011;10591;52.532;13.348;2023-11-19T13:13:25;14.10;;;5.22;;
20861;SDS011;10591;52.532;13.348;2023-11-19T13:16:02;13.10;;;5.50;;
20861;SDS011;10591;52.532;13.348;2023-11-19T13:18:38;17.00;;;5.85;;
20861;SDS011;10591;52.532;13.348;2023-11-19T13:21:13;13.55;;;5.00;;
20861;SDS011;10591;52.532;13.348;2023-11-19T13:23:45;15.10;;;5.22;;
20861;SDS011;10591;52.532;13.348;2023-11-19T13:26:15;17.95;;;5.37;;
20861;SDS011;10591;52.532;13.348;2023-11-19T13:28:48;15.03;;;5.37;;
20861;SDS011;10591;52.532;13.348;2023-11-19T13:31:22;16.62;;;5.28;;
20861;SDS011;10591;52.532;13.348;2023-11-19T13:33:54;18.23;;;5.55;;
20861;SDS011;10591;52.532;13.348;2023-11-19T13:36:27;20.52;;;6.05;;
20861;SDS011;10591;52.532;13.348;2023-11-19T13:39:02;12.33;;;5.30;;
20861;SDS011;10591;52.532;13.348;2023-11-19T13:41:33;13.00;;;5.87;;
20861;SDS011;10591;52.532;13.348;2023-11-19T13:44:04;20.45;;;5.87;;
20861;SDS011;10591;52.532;13.348;2023-11-19T13:47:03;11.30;;;4.70;;
20861;SDS011;10591;52.532;13.348;2023-11-19T13:49:34;16.32;;;6.65;;
20861;SDS011;10591;52.532;13.348;2023-11-19T13:52:06;20.43;;;6.40;;
20861;SDS011;10591;52.532;13.348;2023-11-19T13:54:37;16.73;;;5.58;;
20861;SDS011;10591;52.532;13.348;2023-11-19T13:57:11;18.25;;;6.75;;
20861;SDS011;10591;52.532;13.348;2023-11-19T13:59:41;20.77;;;5.95;;
20861;SDS011;10591;52.532;13.348;2023-11-19T14:02:13;18.82;;;6.03;;
20861;SDS011;10591;52.532;13.348;2023-11-19T14:04:44;15.58;;;5.30;;
20861;SDS011;10591;52.532;13.348;2023-11-19T14:07:16;14.93;;;5.37;;
20861;SDS011;10591;52.532;13.348;2023-11-19T14:09:48;17.45;;;5.37;;
20861;SDS011;10591;52.532;13.348;2023-11-19T14:12:19;13.72;;;5.10;;
20861;SDS011;10591;52.532;13.348;2023-11-19T14:14:51;12.40;;;4.60;;
20861;SDS011;10591;52.532;13.348;2023-11-19T14:17:23;14.50;;;4.80;;
20861;SDS011;10591;52.532;13.348;2023-11-19T14:19:54;18.35;;;5.28;;
20861;SDS011;10591;52.532;13.348;2023-11-19T14:22:25;16.20;;;6.30;;
20861;SDS011;10591;52.532;13.348;2023-11-19T14:24:56;18.90;;;6.10;;
20861;SDS011;10591;52.532;13.348;2023-11-19T14:27:28;20.05;;;5.60;;
20861;SDS011;10591;52.532;13.348;2023-11-19T14:30:04;22.77;;;6.47;;
20861;SDS011;10591;52.532;13.348;2023-11-19T14:32:36;20.05;;;5.95;;
20861;SDS011;10591;52.532;13.348;2023-11-19T14:35:08;20.12;;;7.60;;
20861;SDS011;10591;52.532;13.348;2023-11-19T14:37:39;22.15;;;6.42;;
20861;SDS011;10591;52.532;13.348;2023-11-19T14:40:11;20.77;;;5.67;;
20861;SDS011;10591;52.532;13.348;2023-11-19T14:42:43;22.35;;;6.67;;
20861;SDS011;10591;52.532;13.348;2023-11-19T14:45:14;16.10;;;6.20;;
20861;SDS011;10591;52.532;13.348;2023-11-19T14:47:46;17.40;;;5.65;;
20861;SDS011;10591;52.532;13.348;2023-11-19T14:50:17;18.20;;;6.30;;
20861;SDS011;10591;52.532;13.348;2023-11-19T14:52:48;23.40;;;5.72;;
20861;SDS011;10591;52.532;13.348;2023-11-19T14:55:19;16.50;;;5.55;;
20861;SDS011;10591;52.532;13.348;2023-11-19T14:57:50;15.90;;;5.35;;
20861;SDS011;10591;52.532;13.348;2023-11-19T15:00:23;19.20;;;4.80;;
20861;SDS011;10591;52.532;13.348;2023-11-19T15:02:55;20.62;;;5.83;;
20861;SDS011;10591;52.532;13.348;2023-11-19T15:05:27;14.55;;;5.55;;
20861;SDS011;10591;52.532;13.348;2023-11-19T15:07:58;20.25;;;5.03;;
20861;SDS011;10591;52.532;13.348;2023-11-19T15:10:29;16.82;;;5.08;;